AEE276 LGAV-LGHI
Flight info
| Callsign | AEE276 |
|---|---|
| Flight time | 0h 27m |
| Altitude | 21000 |
| Route | KRO DCT OGSIL DCT SOSIR DCT PANOX |
| Aircraft | A320/M-SDE3FGHIRWY/LB1 |
Departure
| Time | 2026-05-05 16:13 |
|---|---|
| Airport | Athens Eleftherios Venizelos International Airport (LGAV) |
Arrival
| Time | 2026-05-05 16:40 |
|---|---|
| Airport | Chios Island National Airport (LGHI) |
| Time | Latitude | Longitude | Altitude | Speed | Heading |
|---|---|---|---|---|---|
| 2026-05-05 15:41 | 37.94142 | 23.95095 | 301 ft | 0 kts | 39° |
| 2026-05-05 16:03 | 37.94141 | 23.95094 | 301 ft | 2 kts | 39° |
| 2026-05-05 16:03 | 37.94128 | 23.95080 | 303 ft | 2 kts | 39° |
| 2026-05-05 16:04 | 37.94114 | 23.95067 | 302 ft | 2 kts | 39° |
| 2026-05-05 16:04 | 37.94101 | 23.95053 | 301 ft | 3 kts | 56° |
| 2026-05-05 16:04 | 37.94094 | 23.95032 | 302 ft | 3 kts | 92° |
| 2026-05-05 16:04 | 37.94098 | 23.95011 | 301 ft | 2 kts | 120° |
| 2026-05-05 16:05 | 37.94098 | 23.95010 | 301 ft | 0 kts | 123° |
| 2026-05-05 16:08 | 37.94090 | 23.95023 | 302 ft | 4 kts | 128° |
| 2026-05-05 16:08 | 37.94063 | 23.95067 | 302 ft | 9 kts | 129° |
| 2026-05-05 16:09 | 37.94015 | 23.95142 | 303 ft | 13 kts | 129° |
| 2026-05-05 16:09 | 37.93953 | 23.95242 | 300 ft | 16 kts | 127° |
| 2026-05-05 16:09 | 37.93882 | 23.95363 | 301 ft | 19 kts | 127° |
| 2026-05-05 16:09 | 37.93875 | 23.95489 | 297 ft | 17 kts | 44° |
| 2026-05-05 16:10 | 37.93972 | 23.95583 | 298 ft | 19 kts | 36° |
| 2026-05-05 16:10 | 37.94080 | 23.95686 | 300 ft | 20 kts | 36° |
| 2026-05-05 16:10 | 37.94198 | 23.95796 | 297 ft | 22 kts | 38° |
| 2026-05-05 16:10 | 37.94324 | 23.95920 | 299 ft | 24 kts | 38° |
| 2026-05-05 16:11 | 37.94461 | 23.96051 | 299 ft | 26 kts | 36° |
| 2026-05-05 16:11 | 37.94561 | 23.96313 | 298 ft | 16 kts | 189° |
| 2026-05-05 16:12 | 37.94432 | 23.96287 | 289 ft | 21 kts | 205° |
| 2026-05-05 16:12 | 37.93697 | 23.95604 | 283 ft | 124 kts | 217° |
| 2026-05-05 16:13 | 37.91206 | 23.93308 | 1496 ft | 150 kts | 216° |
| 2026-05-05 16:13 | 37.90340 | 23.92541 | 1986 ft | 154 kts | 216° |
| 2026-05-05 16:13 | 37.89409 | 23.91744 | 2394 ft | 169 kts | 215° |
| 2026-05-05 16:14 | 37.87250 | 23.89980 | 3167 ft | 201 kts | 214° |
| 2026-05-05 16:14 | 37.84678 | 23.87874 | 4033 ft | 238 kts | 214° |
| 2026-05-05 16:15 | 37.81676 | 23.85469 | 5131 ft | 272 kts | 213° |
| 2026-05-05 16:15 | 37.77953 | 23.84734 | 6697 ft | 288 kts | 162° |
| 2026-05-05 16:16 | 37.75138 | 23.88098 | 8243 ft | 288 kts | 105° |
| 2026-05-05 16:16 | 37.75423 | 23.92993 | 9780 ft | 287 kts | 68° |
| 2026-05-05 16:17 | 37.76739 | 23.97941 | 10816 ft | 312 kts | 68° |
| 2026-05-05 16:17 | 37.77446 | 24.00612 | 11160 ft | 329 kts | 69° |
| 2026-05-05 16:18 | 37.78918 | 24.06245 | 12323 ft | 342 kts | 69° |
| 2026-05-05 16:18 | 37.79662 | 24.09117 | 13044 ft | 344 kts | 69° |
| 2026-05-05 16:18 | 37.81153 | 24.14871 | 14375 ft | 350 kts | 69° |
| 2026-05-05 16:19 | 37.81914 | 24.17805 | 14950 ft | 353 kts | 68° |
| 2026-05-05 16:19 | 37.82682 | 24.20772 | 15517 ft | 357 kts | 68° |
| 2026-05-05 16:19 | 37.84241 | 24.26797 | 16639 ft | 364 kts | 68° |
| 2026-05-05 16:20 | 37.85828 | 24.32936 | 17777 ft | 371 kts | 68° |
| 2026-05-05 16:20 | 37.87438 | 24.39204 | 18852 ft | 378 kts | 68° |
| 2026-05-05 16:21 | 37.89070 | 24.45552 | 19863 ft | 386 kts | 68° |
| 2026-05-05 16:22 | 37.91591 | 24.55381 | 21026 ft | 396 kts | 68° |
| 2026-05-05 16:22 | 37.93287 | 24.62030 | 21059 ft | 397 kts | 68° |
| 2026-05-05 16:23 | 37.94973 | 24.68678 | 21054 ft | 396 kts | 68° |
| 2026-05-05 16:23 | 37.95814 | 24.72005 | 21058 ft | 396 kts | 68° |
| 2026-05-05 16:23 | 37.97481 | 24.78602 | 21059 ft | 396 kts | 68° |
| 2026-05-05 16:24 | 37.98321 | 24.81917 | 21056 ft | 396 kts | 68° |
| 2026-05-05 16:24 | 37.99162 | 24.85240 | 21064 ft | 396 kts | 68° |
| 2026-05-05 16:24 | 38.00838 | 24.91869 | 21059 ft | 393 kts | 68° |
| 2026-05-05 16:25 | 38.01667 | 24.95170 | 21058 ft | 393 kts | 68° |
| 2026-05-05 16:25 | 38.03321 | 25.01779 | 21059 ft | 393 kts | 68° |
| 2026-05-05 16:25 | 38.04147 | 25.05079 | 21059 ft | 393 kts | 68° |
| 2026-05-05 16:26 | 38.05796 | 25.11679 | 21058 ft | 392 kts | 68° |
| 2026-05-05 16:26 | 38.07432 | 25.18223 | 20571 ft | 390 kts | 68° |
| 2026-05-05 16:27 | 38.08247 | 25.21495 | 20054 ft | 388 kts | 68° |
| 2026-05-05 16:27 | 38.09053 | 25.24750 | 19579 ft | 385 kts | 68° |
| 2026-05-05 16:27 | 38.09843 | 25.27956 | 18878 ft | 376 kts | 68° |
| 2026-05-05 16:27 | 38.10620 | 25.31107 | 17944 ft | 372 kts | 69° |
| 2026-05-05 16:28 | 38.11386 | 25.34212 | 16985 ft | 366 kts | 68° |
| 2026-05-05 16:28 | 38.12143 | 25.37277 | 16062 ft | 360 kts | 68° |
| 2026-05-05 16:28 | 38.12886 | 25.40284 | 15162 ft | 354 kts | 68° |
| 2026-05-05 16:28 | 38.13617 | 25.43247 | 14295 ft | 349 kts | 68° |
| 2026-05-05 16:29 | 38.14338 | 25.46166 | 13383 ft | 344 kts | 68° |
| 2026-05-05 16:29 | 38.14808 | 25.48071 | 12747 ft | 341 kts | 68° |
| 2026-05-05 16:29 | 38.15513 | 25.50931 | 11814 ft | 337 kts | 68° |
| 2026-05-05 16:29 | 38.16199 | 25.53718 | 11298 ft | 322 kts | 68° |
| 2026-05-05 16:30 | 38.16846 | 25.56365 | 10913 ft | 306 kts | 68° |
| 2026-05-05 16:30 | 38.17460 | 25.58891 | 10543 ft | 292 kts | 68° |
| 2026-05-05 16:30 | 38.18049 | 25.61317 | 10271 ft | 286 kts | 68° |
| 2026-05-05 16:30 | 38.18642 | 25.63738 | 10180 ft | 287 kts | 68° |
| 2026-05-05 16:31 | 38.19237 | 25.66156 | 10057 ft | 287 kts | 68° |
| 2026-05-05 16:31 | 38.19831 | 25.68571 | 9696 ft | 285 kts | 68° |
| 2026-05-05 16:31 | 38.20421 | 25.70976 | 9258 ft | 284 kts | 68° |
| 2026-05-05 16:31 | 38.20995 | 25.73336 | 8747 ft | 281 kts | 68° |
| 2026-05-05 16:32 | 38.21570 | 25.75706 | 8233 ft | 280 kts | 68° |
| 2026-05-05 16:32 | 38.22143 | 25.78063 | 7726 ft | 278 kts | 69° |
| 2026-05-05 16:32 | 38.22717 | 25.80419 | 7234 ft | 281 kts | 69° |
| 2026-05-05 16:32 | 38.23300 | 25.82811 | 6745 ft | 285 kts | 69° |
| 2026-05-05 16:33 | 38.23880 | 25.85203 | 6248 ft | 279 kts | 69° |
| 2026-05-05 16:33 | 38.24442 | 25.87538 | 6051 ft | 272 kts | 68° |
| 2026-05-05 16:33 | 38.24991 | 25.89833 | 6053 ft | 271 kts | 70° |
| 2026-05-05 16:33 | 38.25193 | 25.92171 | 6050 ft | 266 kts | 98° |
| 2026-05-05 16:34 | 38.24578 | 25.94299 | 6056 ft | 254 kts | 115° |
| 2026-05-05 16:34 | 38.23690 | 25.96178 | 6057 ft | 241 kts | 121° |
| 2026-05-05 16:34 | 38.22757 | 25.97889 | 6054 ft | 233 kts | 122° |
| 2026-05-05 16:34 | 38.21837 | 25.99544 | 6088 ft | 222 kts | 122° |
| 2026-05-05 16:35 | 38.20973 | 26.01131 | 6061 ft | 212 kts | 121° |
| 2026-05-05 16:35 | 38.20159 | 26.02663 | 6057 ft | 209 kts | 120° |
| 2026-05-05 16:35 | 38.19374 | 26.04168 | 6051 ft | 198 kts | 120° |
| 2026-05-05 16:35 | 38.18619 | 26.05636 | 6056 ft | 198 kts | 119° |
| 2026-05-05 16:36 | 38.17870 | 26.07106 | 6054 ft | 198 kts | 118° |
| 2026-05-05 16:36 | 38.17430 | 26.08712 | 5751 ft | 192 kts | 83° |
| 2026-05-05 16:36 | 38.17882 | 26.10252 | 5239 ft | 187 kts | 44° |
| 2026-05-05 16:36 | 38.18965 | 26.11086 | 4738 ft | 184 kts | 9° |
| 2026-05-05 16:37 | 38.20210 | 26.11275 | 4236 ft | 177 kts | 6° |
| 2026-05-05 16:37 | 38.21372 | 26.11489 | 3805 ft | 159 kts | 7° |
| 2026-05-05 16:37 | 38.22412 | 26.11698 | 3401 ft | 146 kts | 7° |
| 2026-05-05 16:37 | 38.23403 | 26.11899 | 3024 ft | 143 kts | 7° |
| 2026-05-05 16:38 | 38.24390 | 26.12099 | 2662 ft | 144 kts | 6° |
| 2026-05-05 16:38 | 38.25369 | 26.12293 | 2321 ft | 142 kts | 6° |
| 2026-05-05 16:38 | 38.26351 | 26.12454 | 1987 ft | 144 kts | 4° |
| 2026-05-05 16:38 | 38.27315 | 26.12621 | 1577 ft | 142 kts | 4° |
| 2026-05-05 16:39 | 38.28296 | 26.12790 | 1245 ft | 141 kts | 4° |
| 2026-05-05 16:39 | 38.29266 | 26.12959 | 947 ft | 140 kts | 7° |
| 2026-05-05 16:39 | 38.30231 | 26.13150 | 808 ft | 140 kts | 10° |
| 2026-05-05 16:39 | 38.31192 | 26.13373 | 632 ft | 140 kts | 11° |
| 2026-05-05 16:40 | 38.32148 | 26.13577 | 394 ft | 139 kts | 11° |
| 2026-05-05 16:40 | 38.33102 | 26.13785 | 203 ft | 139 kts | 11° |
| 2026-05-05 16:40 | 38.34047 | 26.13995 | 30 ft | 130 kts | 8° |
| 2026-05-05 16:40 | 38.34648 | 26.14123 | 29 ft | 44 kts | 10° |
| 2026-05-05 16:41 | 38.34833 | 26.14164 | 29 ft | 21 kts | 16° |
| 2026-05-05 16:41 | 38.34946 | 26.14192 | 29 ft | 16 kts | 3° |
| 2026-05-05 16:41 | 38.35031 | 26.14207 | 29 ft | 6 kts | 303° |
| 2026-05-05 16:41 | 38.35006 | 26.14196 | 29 ft | 8 kts | 185° |
| 2026-05-05 16:42 | 38.34909 | 26.14179 | 29 ft | 17 kts | 188° |
| 2026-05-05 16:42 | 38.34784 | 26.14153 | 29 ft | 20 kts | 190° |
| 2026-05-05 16:42 | 38.34652 | 26.14123 | 29 ft | 13 kts | 189° |
| 2026-05-05 16:42 | 38.34559 | 26.14130 | 29 ft | 14 kts | 147° |
| 2026-05-05 16:43 | 38.34504 | 26.14180 | 29 ft | 8 kts | 144° |
| 2026-05-05 16:43 | 38.34464 | 26.14194 | 29 ft | 5 kts | 206° |
| 2026-05-05 16:43 | 38.34454 | 26.14206 | 29 ft | 2 kts | 112° |
| 2026-05-05 16:43 | 38.34449 | 26.14221 | 29 ft | 0 kts | 124° |